sensor_id;sensor_type;location;lat;lon;timestamp;P1;durP1;ratioP1;P2;durP2;ratioP2
44476;SDS011;30180;44.788;10.366;2022-08-19T00:01:47;3.17;;;1.50;;
44476;SDS011;30180;44.788;10.366;2022-08-19T00:04:19;1.92;;;1.23;;
44476;SDS011;30180;44.788;10.366;2022-08-19T00:06:49;3.53;;;1.42;;
44476;SDS011;30180;44.788;10.366;2022-08-19T00:09:18;3.50;;;1.48;;
44476;SDS011;30180;44.788;10.366;2022-08-19T00:11:49;2.42;;;1.50;;
44476;SDS011;30180;44.788;10.366;2022-08-19T00:14:18;2.22;;;1.15;;
44476;SDS011;30180;44.788;10.366;2022-08-19T00:16:48;3.30;;;1.77;;
44476;SDS011;30180;44.788;10.366;2022-08-19T00:19:17;2.30;;;1.38;;
44476;SDS011;30180;44.788;10.366;2022-08-19T00:21:45;1.88;;;1.30;;
44476;SDS011;30180;44.788;10.366;2022-08-19T00:24:14;2.00;;;1.30;;
44476;SDS011;30180;44.788;10.366;2022-08-19T00:26:44;2.33;;;1.35;;
44476;SDS011;30180;44.788;10.366;2022-08-19T00:29:14;4.10;;;1.60;;
44476;SDS011;30180;44.788;10.366;2022-08-19T00:31:45;1.75;;;1.20;;
44476;SDS011;30180;44.788;10.366;2022-08-19T00:34:16;2.47;;;1.42;;
44476;SDS011;30180;44.788;10.366;2022-08-19T00:36:44;2.40;;;1.40;;
44476;SDS011;30180;44.788;10.366;2022-08-19T00:39:13;2.55;;;1.40;;
44476;SDS011;30180;44.788;10.366;2022-08-19T00:41:44;2.33;;;1.40;;
44476;SDS011;30180;44.788;10.366;2022-08-19T00:44:17;3.85;;;1.50;;
44476;SDS011;30180;44.788;10.366;2022-08-19T00:46:52;3.78;;;1.63;;
44476;SDS011;30180;44.788;10.366;2022-08-19T00:49:25;2.75;;;1.60;;
44476;SDS011;30180;44.788;10.366;2022-08-19T00:52:00;2.33;;;1.35;;
44476;SDS011;30180;44.788;10.366;2022-08-19T00:54:31;3.10;;;1.50;;
44476;SDS011;30180;44.788;10.366;2022-08-19T00:57:02;3.03;;;1.48;;
44476;SDS011;30180;44.788;10.366;2022-08-19T00:59:34;1.77;;;1.35;;
44476;SDS011;30180;44.788;10.366;2022-08-19T01:02:24;3.70;;;1.65;;
44476;SDS011;30180;44.788;10.366;2022-08-19T01:04:53;2.55;;;1.58;;
44476;SDS011;30180;44.788;10.366;2022-08-19T01:07:21;2.80;;;1.30;;
44476;SDS011;30180;44.788;10.366;2022-08-19T01:09:50;3.28;;;1.60;;
44476;SDS011;30180;44.788;10.366;2022-08-19T01:12:20;2.47;;;1.40;;
44476;SDS011;30180;44.788;10.366;2022-08-19T01:14:48;3.33;;;1.53;;
44476;SDS011;30180;44.788;10.366;2022-08-19T01:17:19;2.33;;;1.45;;
44476;SDS011;30180;44.788;10.366;2022-08-19T01:19:48;2.67;;;1.40;;
44476;SDS011;30180;44.788;10.366;2022-08-19T01:22:18;2.22;;;1.25;;
44476;SDS011;30180;44.788;10.366;2022-08-19T01:24:59;1.88;;;1.30;;
44476;SDS011;30180;44.788;10.366;2022-08-19T01:27:36;2.10;;;1.23;;
44476;SDS011;30180;44.788;10.366;2022-08-19T01:30:09;2.83;;;1.55;;
44476;SDS011;30180;44.788;10.366;2022-08-19T01:32:39;2.08;;;1.40;;
44476;SDS011;30180;44.788;10.366;2022-08-19T01:35:07;3.65;;;1.58;;
44476;SDS011;30180;44.788;10.366;2022-08-19T01:37:46;2.75;;;1.33;;
44476;SDS011;30180;44.788;10.366;2022-08-19T01:40:18;2.33;;;1.52;;
44476;SDS011;30180;44.788;10.366;2022-08-19T01:42:47;2.10;;;1.42;;
44476;SDS011;30180;44.788;10.366;2022-08-19T01:45:15;2.95;;;1.63;;
44476;SDS011;30180;44.788;10.366;2022-08-19T01:47:44;2.58;;;1.40;;
44476;SDS011;30180;44.788;10.366;2022-08-19T01:50:27;2.55;;;1.40;;
44476;SDS011;30180;44.788;10.366;2022-08-19T01:52:58;3.22;;;1.40;;
44476;SDS011;30180;44.788;10.366;2022-08-19T01:55:33;2.80;;;1.48;;
44476;SDS011;30180;44.788;10.366;2022-08-19T01:58:07;1.95;;;1.15;;
44476;SDS011;30180;44.788;10.366;2022-08-19T02:00:38;2.70;;;1.75;;
44476;SDS011;30180;44.788;10.366;2022-08-19T02:03:06;3.20;;;1.60;;
44476;SDS011;30180;44.788;10.366;2022-08-19T02:05:35;2.03;;;1.33;;
44476;SDS011;30180;44.788;10.366;2022-08-19T02:08:05;1.92;;;1.40;;
44476;SDS011;30180;44.788;10.366;2022-08-19T02:13:05;2.75;;;1.50;;
44476;SDS011;30180;44.788;10.366;2022-08-19T02:15:33;3.60;;;1.40;;
44476;SDS011;30180;44.788;10.366;2022-08-19T02:18:01;3.15;;;1.48;;
44476;SDS011;30180;44.788;10.366;2022-08-19T02:20:29;3.05;;;1.60;;
44476;SDS011;30180;44.788;10.366;2022-08-19T02:22:57;2.60;;;1.50;;
44476;SDS011;30180;44.788;10.366;2022-08-19T02:25:28;2.75;;;1.50;;
44476;SDS011;30180;44.788;10.366;2022-08-19T02:27:57;2.97;;;1.75;;
44476;SDS011;30180;44.788;10.366;2022-08-19T02:30:25;2.78;;;1.50;;
44476;SDS011;30180;44.788;10.366;2022-08-19T02:32:54;3.30;;;1.50;;
44476;SDS011;30180;44.788;10.366;2022-08-19T02:35:22;4.68;;;1.70;;
44476;SDS011;30180;44.788;10.366;2022-08-19T02:37:51;2.63;;;1.40;;
44476;SDS011;30180;44.788;10.366;2022-08-19T02:40:38;2.72;;;1.40;;
44476;SDS011;30180;44.788;10.366;2022-08-19T02:43:07;3.50;;;1.50;;
44476;SDS011;30180;44.788;10.366;2022-08-19T02:45:36;3.03;;;2.03;;
44476;SDS011;30180;44.788;10.366;2022-08-19T02:48:07;3.08;;;1.40;;
44476;SDS011;30180;44.788;10.366;2022-08-19T02:50:47;2.17;;;1.45;;
44476;SDS011;30180;44.788;10.366;2022-08-19T02:53:22;2.20;;;1.40;;
44476;SDS011;30180;44.788;10.366;2022-08-19T02:55:52;3.40;;;1.40;;
44476;SDS011;30180;44.788;10.366;2022-08-19T02:58:21;2.17;;;1.33;;
44476;SDS011;30180;44.788;10.366;2022-08-19T03:00:51;2.97;;;1.35;;
44476;SDS011;30180;44.788;10.366;2022-08-19T03:03:21;2.92;;;1.60;;
44476;SDS011;30180;44.788;10.366;2022-08-19T03:05:49;2.95;;;1.50;;
44476;SDS011;30180;44.788;10.366;2022-08-19T03:08:22;2.22;;;1.30;;
44476;SDS011;30180;44.788;10.366;2022-08-19T03:10:53;3.88;;;1.30;;
44476;SDS011;30180;44.788;10.366;2022-08-19T03:13:21;2.40;;;1.40;;
44476;SDS011;30180;44.788;10.366;2022-08-19T03:15:50;1.67;;;1.20;;
44476;SDS011;30180;44.788;10.366;2022-08-19T03:18:18;3.40;;;1.38;;
44476;SDS011;30180;44.788;10.366;2022-08-19T03:20:49;2.37;;;1.20;;
44476;SDS011;30180;44.788;10.366;2022-08-19T03:23:19;2.75;;;1.08;;
44476;SDS011;30180;44.788;10.366;2022-08-19T03:25:48;2.42;;;1.40;;
44476;SDS011;30180;44.788;10.366;2022-08-19T03:28:38;2.13;;;1.20;;
44476;SDS011;30180;44.788;10.366;2022-08-19T03:31:13;2.47;;;1.40;;
44476;SDS011;30180;44.788;10.366;2022-08-19T03:34:01;3.03;;;1.40;;
44476;SDS011;30180;44.788;10.366;2022-08-19T03:36:33;4.32;;;1.60;;
44476;SDS011;30180;44.788;10.366;2022-08-19T03:39:01;3.30;;;1.65;;
44476;SDS011;30180;44.788;10.366;2022-08-19T03:41:31;3.00;;;1.75;;
44476;SDS011;30180;44.788;10.366;2022-08-19T03:44:12;3.03;;;1.30;;
44476;SDS011;30180;44.788;10.366;2022-08-19T03:46:43;2.65;;;1.33;;
44476;SDS011;30180;44.788;10.366;2022-08-19T03:49:12;3.63;;;1.58;;
44476;SDS011;30180;44.788;10.366;2022-08-19T03:51:43;2.83;;;1.20;;
44476;SDS011;30180;44.788;10.366;2022-08-19T03:54:13;2.70;;;1.15;;
44476;SDS011;30180;44.788;10.366;2022-08-19T03:56:43;2.73;;;1.10;;
44476;SDS011;30180;44.788;10.366;2022-08-19T03:59:16;2.03;;;0.98;;
44476;SDS011;30180;44.788;10.366;2022-08-19T04:01:46;2.15;;;1.20;;
44476;SDS011;30180;44.788;10.366;2022-08-19T04:04:14;2.28;;;1.40;;
44476;SDS011;30180;44.788;10.366;2022-08-19T04:06:45;2.25;;;1.20;;
44476;SDS011;30180;44.788;10.366;2022-08-19T04:09:14;2.72;;;1.17;;
44476;SDS011;30180;44.788;10.366;2022-08-19T04:11:43;2.80;;;1.38;;
44476;SDS011;30180;44.788;10.366;2022-08-19T04:14:17;2.17;;;1.35;;
44476;SDS011;30180;44.788;10.366;2022-08-19T04:16:47;2.72;;;1.20;;
44476;SDS011;30180;44.788;10.366;2022-08-19T04:19:16;1.30;;;1.10;;
44476;SDS011;30180;44.788;10.366;2022-08-19T04:21:46;2.30;;;1.10;;
44476;SDS011;30180;44.788;10.366;2022-08-19T04:24:16;2.25;;;1.20;;
44476;SDS011;30180;44.788;10.366;2022-08-19T04:26:45;2.50;;;1.30;;
44476;SDS011;30180;44.788;10.366;2022-08-19T04:29:16;2.88;;;1.15;;
44476;SDS011;30180;44.788;10.366;2022-08-19T04:31:48;2.25;;;1.00;;
44476;SDS011;30180;44.788;10.366;2022-08-19T04:34:17;1.95;;;1.10;;
44476;SDS011;30180;44.788;10.366;2022-08-19T04:36:49;3.28;;;1.40;;
44476;SDS011;30180;44.788;10.366;2022-08-19T04:39:20;1.88;;;1.00;;
44476;SDS011;30180;44.788;10.366;2022-08-19T04:41:49;1.98;;;1.10;;
44476;SDS011;30180;44.788;10.366;2022-08-19T04:44:36;2.63;;;1.10;;
44476;SDS011;30180;44.788;10.366;2022-08-19T04:47:11;1.80;;;1.20;;
44476;SDS011;30180;44.788;10.366;2022-08-19T04:49:39;2.47;;;1.52;;
44476;SDS011;30180;44.788;10.366;2022-08-19T04:52:08;1.70;;;1.27;;
44476;SDS011;30180;44.788;10.366;2022-08-19T04:54:36;2.60;;;1.27;;
44476;SDS011;30180;44.788;10.366;2022-08-19T04:57:06;2.75;;;1.00;;
44476;SDS011;30180;44.788;10.366;2022-08-19T04:59:38;2.63;;;1.20;;
44476;SDS011;30180;44.788;10.366;2022-08-19T05:02:06;2.10;;;1.23;;
44476;SDS011;30180;44.788;10.366;2022-08-19T05:04:37;1.75;;;1.15;;
44476;SDS011;30180;44.788;10.366;2022-08-19T05:07:06;2.22;;;1.08;;
44476;SDS011;30180;44.788;10.366;2022-08-19T05:09:36;1.90;;;1.00;;
44476;SDS011;30180;44.788;10.366;2022-08-19T05:12:23;2.00;;;1.08;;
44476;SDS011;30180;44.788;10.366;2022-08-19T05:14:56;2.03;;;1.00;;
44476;SDS011;30180;44.788;10.366;2022-08-19T05:17:25;1.77;;;1.20;;
44476;SDS011;30180;44.788;10.366;2022-08-19T05:19:58;2.17;;;1.10;;
44476;SDS011;30180;44.788;10.366;2022-08-19T05:22:46;3.35;;;1.15;;
44476;SDS011;30180;44.788;10.366;2022-08-19T05:25:15;2.15;;;1.20;;
44476;SDS011;30180;44.788;10.366;2022-08-19T05:27:46;1.60;;;1.00;;
44476;SDS011;30180;44.788;10.366;2022-08-19T05:30:16;1.67;;;1.05;;
44476;SDS011;30180;44.788;10.366;2022-08-19T05:33:05;2.72;;;0.93;;
44476;SDS011;30180;44.788;10.366;2022-08-19T05:35:35;8.80;;;2.03;;
44476;SDS011;30180;44.788;10.366;2022-08-19T05:38:03;19.80;;;4.68;;
44476;SDS011;30180;44.788;10.366;2022-08-19T05:40:33;22.65;;;5.20;;
44476;SDS011;30180;44.788;10.366;2022-08-19T05:43:02;17.55;;;4.75;;
44476;SDS011;30180;44.788;10.366;2022-08-19T05:45:32;14.23;;;4.55;;
44476;SDS011;30180;44.788;10.366;2022-08-19T05:48:04;14.57;;;4.20;;
44476;SDS011;30180;44.788;10.366;2022-08-19T05:50:34;12.63;;;4.18;;
44476;SDS011;30180;44.788;10.366;2022-08-19T05:53:03;7.13;;;2.97;;
44476;SDS011;30180;44.788;10.366;2022-08-19T05:55:32;7.00;;;2.38;;
44476;SDS011;30180;44.788;10.366;2022-08-19T05:58:00;7.80;;;2.78;;
44476;SDS011;30180;44.788;10.366;2022-08-19T06:00:29;5.20;;;2.20;;
44476;SDS011;30180;44.788;10.366;2022-08-19T06:02:58;7.43;;;2.47;;
44476;SDS011;30180;44.788;10.366;2022-08-19T06:05:39;7.78;;;2.35;;
44476;SDS011;30180;44.788;10.366;2022-08-19T06:08:17;8.35;;;2.40;;
44476;SDS011;30180;44.788;10.366;2022-08-19T06:11:11;11.75;;;2.70;;
44476;SDS011;30180;44.788;10.366;2022-08-19T06:13:41;11.48;;;2.35;;
44476;SDS011;30180;44.788;10.366;2022-08-19T06:16:09;13.40;;;2.60;;
44476;SDS011;30180;44.788;10.366;2022-08-19T06:18:39;8.18;;;2.35;;
44476;SDS011;30180;44.788;10.366;2022-08-19T06:21:07;10.80;;;2.13;;
44476;SDS011;30180;44.788;10.366;2022-08-19T06:23:35;9.70;;;2.92;;
44476;SDS011;30180;44.788;10.366;2022-08-19T06:26:04;9.13;;;2.67;;
44476;SDS011;30180;44.788;10.366;2022-08-19T06:28:32;8.80;;;2.58;;
44476;SDS011;30180;44.788;10.366;2022-08-19T06:31:05;7.30;;;2.00;;
44476;SDS011;30180;44.788;10.366;2022-08-19T06:33:34;10.65;;;2.28;;
44476;SDS011;30180;44.788;10.366;2022-08-19T06:36:03;6.38;;;2.28;;
44476;SDS011;30180;44.788;10.366;2022-08-19T06:38:32;10.10;;;2.20;;
44476;SDS011;30180;44.788;10.366;2022-08-19T06:41:01;9.85;;;2.55;;
44476;SDS011;30180;44.788;10.366;2022-08-19T06:43:33;9.10;;;2.33;;
44476;SDS011;30180;44.788;10.366;2022-08-19T06:46:09;8.65;;;2.55;;
44476;SDS011;30180;44.788;10.366;2022-08-19T06:48:40;8.88;;;2.15;;
44476;SDS011;30180;44.788;10.366;2022-08-19T06:51:12;6.45;;;2.35;;
44476;SDS011;30180;44.788;10.366;2022-08-19T06:53:45;7.85;;;2.28;;
44476;SDS011;30180;44.788;10.366;2022-08-19T06:56:14;7.50;;;2.25;;
44476;SDS011;30180;44.788;10.366;2022-08-19T06:58:43;4.85;;;1.90;;
44476;SDS011;30180;44.788;10.366;2022-08-19T07:01:12;6.55;;;2.45;;
44476;SDS011;30180;44.788;10.366;2022-08-19T07:03:41;7.55;;;2.05;;
44476;SDS011;30180;44.788;10.366;2022-08-19T07:06:10;6.00;;;1.83;;
44476;SDS011;30180;44.788;10.366;2022-08-19T07:09:03;7.28;;;2.13;;
44476;SDS011;30180;44.788;10.366;2022-08-19T07:11:32;7.10;;;2.00;;
44476;SDS011;30180;44.788;10.366;2022-08-19T07:14:01;8.07;;;2.15;;
44476;SDS011;30180;44.788;10.366;2022-08-19T07:16:30;7.53;;;2.22;;
44476;SDS011;30180;44.788;10.366;2022-08-19T07:18:58;5.38;;;2.00;;
44476;SDS011;30180;44.788;10.366;2022-08-19T07:21:42;6.97;;;1.80;;
44476;SDS011;30180;44.788;10.366;2022-08-19T07:24:11;5.25;;;1.85;;
44476;SDS011;30180;44.788;10.366;2022-08-19T07:26:40;6.13;;;1.60;;
44476;SDS011;30180;44.788;10.366;2022-08-19T07:29:10;7.18;;;1.83;;
44476;SDS011;30180;44.788;10.366;2022-08-19T07:31:39;7.18;;;2.10;;
44476;SDS011;30180;44.788;10.366;2022-08-19T07:34:09;7.70;;;1.67;;
44476;SDS011;30180;44.788;10.366;2022-08-19T07:39:11;7.53;;;1.85;;
44476;SDS011;30180;44.788;10.366;2022-08-19T07:41:41;6.50;;;1.90;;
44476;SDS011;30180;44.788;10.366;2022-08-19T07:44:11;11.55;;;2.10;;
44476;SDS011;30180;44.788;10.366;2022-08-19T07:46:42;4.47;;;1.75;;
44476;SDS011;30180;44.788;10.366;2022-08-19T07:49:15;4.18;;;1.60;;
44476;SDS011;30180;44.788;10.366;2022-08-19T07:51:45;6.70;;;1.93;;
44476;SDS011;30180;44.788;10.366;2022-08-19T07:54:17;6.07;;;1.58;;
44476;SDS011;30180;44.788;10.366;2022-08-19T07:56:46;7.85;;;1.85;;
44476;SDS011;30180;44.788;10.366;2022-08-19T07:59:17;6.22;;;1.67;;
44476;SDS011;30180;44.788;10.366;2022-08-19T08:01:46;7.20;;;1.70;;
44476;SDS011;30180;44.788;10.366;2022-08-19T08:04:16;9.13;;;2.20;;
44476;SDS011;30180;44.788;10.366;2022-08-19T08:07:03;6.60;;;1.73;;
44476;SDS011;30180;44.788;10.366;2022-08-19T08:09:50;9.15;;;2.00;;
44476;SDS011;30180;44.788;10.366;2022-08-19T08:12:25;6.38;;;1.60;;
44476;SDS011;30180;44.788;10.366;2022-08-19T08:15:01;3.67;;;1.58;;
44476;SDS011;30180;44.788;10.366;2022-08-19T08:17:38;7.80;;;1.88;;
44476;SDS011;30180;44.788;10.366;2022-08-19T08:20:17;5.28;;;1.70;;
44476;SDS011;30180;44.788;10.366;2022-08-19T08:22:47;4.90;;;1.88;;
44476;SDS011;30180;44.788;10.366;2022-08-19T08:25:34;5.80;;;1.92;;
44476;SDS011;30180;44.788;10.366;2022-08-19T08:28:04;7.55;;;1.77;;
44476;SDS011;30180;44.788;10.366;2022-08-19T08:30:42;3.55;;;1.52;;
44476;SDS011;30180;44.788;10.366;2022-08-19T08:33:14;4.03;;;1.80;;
44476;SDS011;30180;44.788;10.366;2022-08-19T08:36:00;7.00;;;1.60;;
44476;SDS011;30180;44.788;10.366;2022-08-19T08:38:29;7.25;;;1.70;;
44476;SDS011;30180;44.788;10.366;2022-08-19T08:41:09;5.55;;;1.67;;
44476;SDS011;30180;44.788;10.366;2022-08-19T08:43:45;5.13;;;1.70;;
44476;SDS011;30180;44.788;10.366;2022-08-19T08:46:16;6.78;;;1.90;;
44476;SDS011;30180;44.788;10.366;2022-08-19T08:48:59;3.97;;;1.92;;
44476;SDS011;30180;44.788;10.366;2022-08-19T08:51:36;7.35;;;1.80;;
44476;SDS011;30180;44.788;10.366;2022-08-19T08:54:12;4.95;;;1.77;;
44476;SDS011;30180;44.788;10.366;2022-08-19T08:59:12;9.40;;;1.23;;
44476;SDS011;30180;44.788;10.366;2022-08-19T09:01:46;5.60;;;1.75;;
44476;SDS011;30180;44.788;10.366;2022-08-19T09:04:15;6.80;;;1.48;;
44476;SDS011;30180;44.788;10.366;2022-08-19T09:06:49;7.97;;;1.73;;
44476;SDS011;30180;44.788;10.366;2022-08-19T09:09:23;5.10;;;2.05;;
44476;SDS011;30180;44.788;10.366;2022-08-19T09:12:03;4.60;;;1.50;;
44476;SDS011;30180;44.788;10.366;2022-08-19T09:14:39;4.57;;;1.50;;
44476;SDS011;30180;44.788;10.366;2022-08-19T09:17:18;4.25;;;1.30;;
44476;SDS011;30180;44.788;10.366;2022-08-19T09:19:56;3.05;;;1.50;;
44476;SDS011;30180;44.788;10.366;2022-08-19T09:22:27;3.90;;;1.48;;
44476;SDS011;30180;44.788;10.366;2022-08-19T09:24:55;4.93;;;1.45;;
44476;SDS011;30180;44.788;10.366;2022-08-19T09:27:25;5.15;;;1.17;;
44476;SDS011;30180;44.788;10.366;2022-08-19T09:30:09;5.35;;;1.30;;
44476;SDS011;30180;44.788;10.366;2022-08-19T09:32:41;3.60;;;1.20;;
44476;SDS011;30180;44.788;10.366;2022-08-19T09:35:09;10.23;;;1.25;;
44476;SDS011;30180;44.788;10.366;2022-08-19T09:37:39;3.25;;;1.48;;
44476;SDS011;30180;44.788;10.366;2022-08-19T09:40:08;3.67;;;1.40;;
44476;SDS011;30180;44.788;10.366;2022-08-19T09:42:39;3.97;;;1.27;;
44476;SDS011;30180;44.788;10.366;2022-08-19T09:45:16;2.70;;;1.15;;
44476;SDS011;30180;44.788;10.366;2022-08-19T09:47:47;2.63;;;1.00;;
44476;SDS011;30180;44.788;10.366;2022-08-19T09:50:19;4.78;;;1.40;;
44476;SDS011;30180;44.788;10.366;2022-08-19T09:52:49;4.93;;;1.08;;
44476;SDS011;30180;44.788;10.366;2022-08-19T09:55:23;3.47;;;1.23;;
44476;SDS011;30180;44.788;10.366;2022-08-19T09:57:59;3.92;;;1.30;;
44476;SDS011;30180;44.788;10.366;2022-08-19T10:00:28;3.15;;;1.10;;
44476;SDS011;30180;44.788;10.366;2022-08-19T10:02:57;3.92;;;1.05;;
44476;SDS011;30180;44.788;10.366;2022-08-19T10:05:26;3.60;;;1.13;;
44476;SDS011;30180;44.788;10.366;2022-08-19T10:08:14;3.00;;;1.10;;
44476;SDS011;30180;44.788;10.366;2022-08-19T10:10:43;4.00;;;1.30;;
44476;SDS011;30180;44.788;10.366;2022-08-19T10:13:15;3.97;;;1.23;;
44476;SDS011;30180;44.788;10.366;2022-08-19T10:15:48;2.70;;;1.00;;
44476;SDS011;30180;44.788;10.366;2022-08-19T10:18:18;2.63;;;0.90;;
44476;SDS011;30180;44.788;10.366;2022-08-19T10:20:48;3.28;;;1.55;;
44476;SDS011;30180;44.788;10.366;2022-08-19T10:23:18;4.80;;;1.27;;
44476;SDS011;30180;44.788;10.366;2022-08-19T10:25:47;4.13;;;0.95;;
44476;SDS011;30180;44.788;10.366;2022-08-19T10:28:17;3.28;;;0.82;;
44476;SDS011;30180;44.788;10.366;2022-08-19T10:30:45;2.00;;;0.63;;
44476;SDS011;30180;44.788;10.366;2022-08-19T10:33:14;2.08;;;0.60;;
44476;SDS011;30180;44.788;10.366;2022-08-19T10:36:03;2.20;;;0.65;;
44476;SDS011;30180;44.788;10.366;2022-08-19T10:38:34;5.47;;;0.70;;
44476;SDS011;30180;44.788;10.366;2022-08-19T10:41:09;2.58;;;0.70;;
44476;SDS011;30180;44.788;10.366;2022-08-19T10:43:40;1.98;;;0.70;;
44476;SDS011;30180;44.788;10.366;2022-08-19T10:46:12;4.00;;;0.70;;
44476;SDS011;30180;44.788;10.366;2022-08-19T10:48:42;1.77;;;0.68;;
44476;SDS011;30180;44.788;10.366;2022-08-19T10:51:11;3.15;;;0.50;;
44476;SDS011;30180;44.788;10.366;2022-08-19T10:53:59;1.95;;;0.73;;
44476;SDS011;30180;44.788;10.366;2022-08-19T10:59:28;4.45;;;0.60;;
44476;SDS011;30180;44.788;10.366;2022-08-19T11:02:02;2.65;;;0.77;;
44476;SDS011;30180;44.788;10.366;2022-08-19T11:04:32;1.42;;;0.40;;
44476;SDS011;30180;44.788;10.366;2022-08-19T11:07:01;1.85;;;0.52;;
44476;SDS011;30180;44.788;10.366;2022-08-19T11:09:29;0.70;;;0.60;;
44476;SDS011;30180;44.788;10.366;2022-08-19T11:11:59;1.48;;;0.40;;
44476;SDS011;30180;44.788;10.366;2022-08-19T11:14:31;4.22;;;0.70;;
44476;SDS011;30180;44.788;10.366;2022-08-19T11:17:01;3.38;;;0.88;;
44476;SDS011;30180;44.788;10.366;2022-08-19T11:19:30;2.22;;;0.60;;
44476;SDS011;30180;44.788;10.366;2022-08-19T11:21:59;7.32;;;1.23;;
44476;SDS011;30180;44.788;10.366;2022-08-19T11:24:29;1.40;;;0.50;;
44476;SDS011;30180;44.788;10.366;2022-08-19T11:27:02;2.53;;;0.75;;
44476;SDS011;30180;44.788;10.366;2022-08-19T11:29:34;0.93;;;0.45;;
44476;SDS011;30180;44.788;10.366;2022-08-19T11:32:05;1.70;;;0.35;;
44476;SDS011;30180;44.788;10.366;2022-08-19T11:34:35;2.72;;;0.60;;
44476;SDS011;30180;44.788;10.366;2022-08-19T11:37:03;2.15;;;0.73;;
44476;SDS011;30180;44.788;10.366;2022-08-19T11:39:33;1.77;;;0.52;;
44476;SDS011;30180;44.788;10.366;2022-08-19T11:44:54;1.60;;;0.50;;
44476;SDS011;30180;44.788;10.366;2022-08-19T11:47:23;2.77;;;0.90;;
44476;SDS011;30180;44.788;10.366;2022-08-19T11:49:52;2.03;;;0.43;;
44476;SDS011;30180;44.788;10.366;2022-08-19T11:52:20;1.67;;;0.60;;
44476;SDS011;30180;44.788;10.366;2022-08-19T11:54:48;1.50;;;0.50;;
44476;SDS011;30180;44.788;10.366;2022-08-19T11:57:17;2.25;;;0.32;;
44476;SDS011;30180;44.788;10.366;2022-08-19T11:59:49;1.85;;;0.50;;
44476;SDS011;30180;44.788;10.366;2022-08-19T12:02:18;0.80;;;0.40;;
44476;SDS011;30180;44.788;10.366;2022-08-19T12:04:47;1.13;;;0.40;;
44476;SDS011;30180;44.788;10.366;2022-08-19T12:07:16;2.03;;;0.60;;
44476;SDS011;30180;44.788;10.366;2022-08-19T12:09:44;1.48;;;0.47;;
44476;SDS011;30180;44.788;10.366;2022-08-19T12:12:14;1.85;;;0.60;;
44476;SDS011;30180;44.788;10.366;2022-08-19T12:14:42;1.80;;;0.80;;
44476;SDS011;30180;44.788;10.366;2022-08-19T12:17:12;2.20;;;0.50;;
44476;SDS011;30180;44.788;10.366;2022-08-19T12:19:42;1.15;;;0.50;;
44476;SDS011;30180;44.788;10.366;2022-08-19T12:22:10;0.97;;;0.57;;
44476;SDS011;30180;44.788;10.366;2022-08-19T12:24:39;0.77;;;0.43;;
44476;SDS011;30180;44.788;10.366;2022-08-19T12:27:07;0.65;;;0.45;;
44476;SDS011;30180;44.788;10.366;2022-08-19T12:29:38;2.42;;;0.93;;
44476;SDS011;30180;44.788;10.366;2022-08-19T12:32:07;1.55;;;0.60;;
44476;SDS011;30180;44.788;10.366;2022-08-19T12:34:38;1.37;;;0.50;;
44476;SDS011;30180;44.788;10.366;2022-08-19T12:37:07;1.65;;;0.55;;
44476;SDS011;30180;44.788;10.366;2022-08-19T12:39:37;3.65;;;0.55;;
44476;SDS011;30180;44.788;10.366;2022-08-19T12:42:08;0.98;;;0.30;;
44476;SDS011;30180;44.788;10.366;2022-08-19T12:44:37;1.88;;;0.40;;
44476;SDS011;30180;44.788;10.366;2022-08-19T12:47:08;2.13;;;0.60;;
44476;SDS011;30180;44.788;10.366;2022-08-19T12:49:40;1.42;;;0.50;;
44476;SDS011;30180;44.788;10.366;2022-08-19T12:52:22;1.63;;;0.57;;
44476;SDS011;30180;44.788;10.366;2022-08-19T12:54:51;1.38;;;0.45;;
44476;SDS011;30180;44.788;10.366;2022-08-19T12:57:20;2.72;;;0.50;;
44476;SDS011;30180;44.788;10.366;2022-08-19T12:59:57;3.42;;;0.52;;
44476;SDS011;30180;44.788;10.366;2022-08-19T13:02:26;2.00;;;0.40;;
44476;SDS011;30180;44.788;10.366;2022-08-19T13:04:54;6.85;;;0.47;;
44476;SDS011;30180;44.788;10.366;2022-08-19T13:07:26;1.20;;;0.40;;
44476;SDS011;30180;44.788;10.366;2022-08-19T13:09:57;2.58;;;0.50;;
44476;SDS011;30180;44.788;10.366;2022-08-19T13:12:25;4.28;;;0.70;;
44476;SDS011;30180;44.788;10.366;2022-08-19T13:14:54;1.55;;;0.60;;
44476;SDS011;30180;44.788;10.366;2022-08-19T13:17:25;1.50;;;0.52;;
44476;SDS011;30180;44.788;10.366;2022-08-19T13:19:54;0.90;;;0.50;;
44476;SDS011;30180;44.788;10.366;2022-08-19T13:22:22;2.53;;;0.63;;
44476;SDS011;30180;44.788;10.366;2022-08-19T13:24:52;0.77;;;0.50;;
44476;SDS011;30180;44.788;10.366;2022-08-19T13:27:20;5.78;;;0.60;;
44476;SDS011;30180;44.788;10.366;2022-08-19T13:29:49;3.53;;;0.70;;
44476;SDS011;30180;44.788;10.366;2022-08-19T13:32:34;0.98;;;0.43;;
44476;SDS011;30180;44.788;10.366;2022-08-19T13:35:20;1.58;;;0.55;;
44476;SDS011;30180;44.788;10.366;2022-08-19T13:37:48;3.00;;;0.52;;
44476;SDS011;30180;44.788;10.366;2022-08-19T13:40:18;3.53;;;0.50;;
44476;SDS011;30180;44.788;10.366;2022-08-19T13:42:50;3.03;;;0.73;;
44476;SDS011;30180;44.788;10.366;2022-08-19T13:45:21;1.17;;;0.57;;
44476;SDS011;30180;44.788;10.366;2022-08-19T13:47:51;1.73;;;0.60;;
44476;SDS011;30180;44.788;10.366;2022-08-19T13:50:25;5.05;;;1.17;;
44476;SDS011;30180;44.788;10.366;2022-08-19T13:52:55;1.40;;;0.40;;
44476;SDS011;30180;44.788;10.366;2022-08-19T13:55:25;2.03;;;0.50;;
44476;SDS011;30180;44.788;10.366;2022-08-19T13:57:54;3.20;;;0.70;;
44476;SDS011;30180;44.788;10.366;2022-08-19T14:00:24;1.20;;;0.47;;
44476;SDS011;30180;44.788;10.366;2022-08-19T14:02:55;0.65;;;0.47;;
44476;SDS011;30180;44.788;10.366;2022-08-19T14:05:24;1.63;;;0.50;;
44476;SDS011;30180;44.788;10.366;2022-08-19T14:07:53;1.35;;;0.40;;
44476;SDS011;30180;44.788;10.366;2022-08-19T14:10:22;2.05;;;0.47;;
44476;SDS011;30180;44.788;10.366;2022-08-19T14:15:21;1.52;;;0.40;;
44476;SDS011;30180;44.788;10.366;2022-08-19T14:17:50;1.13;;;0.30;;
44476;SDS011;30180;44.788;10.366;2022-08-19T14:20:19;4.65;;;0.60;;
44476;SDS011;30180;44.788;10.366;2022-08-19T14:22:51;1.95;;;0.32;;
44476;SDS011;30180;44.788;10.366;2022-08-19T14:25:20;1.73;;;0.60;;
44476;SDS011;30180;44.788;10.366;2022-08-19T14:27:51;2.40;;;0.40;;
44476;SDS011;30180;44.788;10.366;2022-08-19T14:30:21;1.40;;;0.60;;
44476;SDS011;30180;44.788;10.366;2022-08-19T14:32:53;1.50;;;0.50;;
44476;SDS011;30180;44.788;10.366;2022-08-19T14:35:21;2.58;;;0.65;;
44476;SDS011;30180;44.788;10.366;2022-08-19T14:37:50;1.08;;;0.50;;
44476;SDS011;30180;44.788;10.366;2022-08-19T14:40:22;1.42;;;0.50;;
44476;SDS011;30180;44.788;10.366;2022-08-19T14:42:54;1.17;;;0.40;;
44476;SDS011;30180;44.788;10.366;2022-08-19T14:45:26;2.72;;;0.50;;
44476;SDS011;30180;44.788;10.366;2022-08-19T14:47:55;3.05;;;0.90;;
44476;SDS011;30180;44.788;10.366;2022-08-19T14:50:25;1.20;;;0.50;;
44476;SDS011;30180;44.788;10.366;2022-08-19T14:52:58;1.52;;;0.70;;
44476;SDS011;30180;44.788;10.366;2022-08-19T14:55:39;0.47;;;0.30;;
44476;SDS011;30180;44.788;10.366;2022-08-19T14:58:10;2.28;;;0.60;;
44476;SDS011;30180;44.788;10.366;2022-08-19T15:00:56;1.73;;;0.60;;
44476;SDS011;30180;44.788;10.366;2022-08-19T15:03:26;3.17;;;0.40;;
44476;SDS011;30180;44.788;10.366;2022-08-19T15:05:55;3.65;;;0.50;;
44476;SDS011;30180;44.788;10.366;2022-08-19T15:08:24;4.20;;;0.80;;
44476;SDS011;30180;44.788;10.366;2022-08-19T15:10:53;1.67;;;0.40;;
44476;SDS011;30180;44.788;10.366;2022-08-19T15:13:23;1.75;;;0.70;;
44476;SDS011;30180;44.788;10.366;2022-08-19T15:18:20;1.23;;;0.68;;